Sprankle Mills, Pennsylvania
Current Conditions -  °F | °C
As of 11:53 AM on Friday 24 Oct 2014 (Local Time) from KDUJ Reporting Station
Broken Clouds Broken Clouds  
Wind Chill: 44°   Ceiling: 1800
Heat Index: 49°   Visibility: 10mi
Dew Point: 40°   Wind: 12mph
Humidity: 71%   Direction: 290°WNW
Pressure: 30.04"   Gusts: 18mph
Location:  41°N, 79.11°W
Report Text: KDUJ 241553Z AUTO 29010G16KT 10SM BKN018 09/04 A3004 RMK AO2 SLP178 T00940044
Loading
Personal Weather Stations






























Interactive Weather Map
Tropical Storm Tracking
New forecast layout! Learn more

10-Day Weather Forecast

Advertisements
Track Severe Weather on mobile